sensor_id;sensor_type;location;lat;lon;timestamp;P1;durP1;ratioP1;P2;durP2;ratioP2
12535;SDS011;6334;48.696;2.114;2023-05-25T00:00:02;6.83;;;3.77;;
12535;SDS011;6334;48.696;2.114;2023-05-25T00:02:33;7.20;;;3.83;;
12535;SDS011;6334;48.696;2.114;2023-05-25T00:05:02;8.70;;;3.70;;
12535;SDS011;6334;48.696;2.114;2023-05-25T00:07:33;6.50;;;3.87;;
12535;SDS011;6334;48.696;2.114;2023-05-25T00:10:04;9.87;;;4.20;;
12535;SDS011;6334;48.696;2.114;2023-05-25T00:12:34;7.77;;;4.37;;
12535;SDS011;6334;48.696;2.114;2023-05-25T00:15:04;5.67;;;3.47;;
12535;SDS011;6334;48.696;2.114;2023-05-25T00:17:35;8.13;;;4.33;;
12535;SDS011;6334;48.696;2.114;2023-05-25T00:20:06;8.53;;;4.20;;
12535;SDS011;6334;48.696;2.114;2023-05-25T00:22:37;5.47;;;3.40;;
12535;SDS011;6334;48.696;2.114;2023-05-25T00:25:07;6.97;;;3.60;;
12535;SDS011;6334;48.696;2.114;2023-05-25T00:27:38;5.60;;;3.60;;
12535;SDS011;6334;48.696;2.114;2023-05-25T00:30:08;7.53;;;3.43;;
12535;SDS011;6334;48.696;2.114;2023-05-25T00:32:39;8.65;;;3.83;;
12535;SDS011;6334;48.696;2.114;2023-05-25T00:35:09;6.33;;;3.50;;
12535;SDS011;6334;48.696;2.114;2023-05-25T00:37:40;8.17;;;3.73;;
12535;SDS011;6334;48.696;2.114;2023-05-25T00:40:11;7.20;;;3.83;;
12535;SDS011;6334;48.696;2.114;2023-05-25T00:42:41;6.93;;;3.70;;
12535;SDS011;6334;48.696;2.114;2023-05-25T00:45:11;8.80;;;3.80;;
12535;SDS011;6334;48.696;2.114;2023-05-25T00:47:42;6.33;;;3.43;;
12535;SDS011;6334;48.696;2.114;2023-05-25T00:50:13;6.47;;;4.17;;
12535;SDS011;6334;48.696;2.114;2023-05-25T00:52:44;8.73;;;3.80;;
12535;SDS011;6334;48.696;2.114;2023-05-25T00:55:15;7.30;;;4.47;;
12535;SDS011;6334;48.696;2.114;2023-05-25T00:57:46;7.30;;;3.70;;
12535;SDS011;6334;48.696;2.114;2023-05-25T01:00:16;8.37;;;3.70;;
12535;SDS011;6334;48.696;2.114;2023-05-25T01:02:46;6.77;;;3.90;;
12535;SDS011;6334;48.696;2.114;2023-05-25T01:05:16;7.57;;;3.90;;
12535;SDS011;6334;48.696;2.114;2023-05-25T01:07:47;5.93;;;3.83;;
12535;SDS011;6334;48.696;2.114;2023-05-25T01:10:18;7.80;;;3.87;;
12535;SDS011;6334;48.696;2.114;2023-05-25T01:12:49;6.73;;;3.83;;
12535;SDS011;6334;48.696;2.114;2023-05-25T01:15:19;6.10;;;3.80;;
12535;SDS011;6334;48.696;2.114;2023-05-25T01:17:49;9.03;;;4.07;;
12535;SDS011;6334;48.696;2.114;2023-05-25T01:20:19;5.97;;;4.27;;
12535;SDS011;6334;48.696;2.114;2023-05-25T01:22:50;7.93;;;4.63;;
12535;SDS011;6334;48.696;2.114;2023-05-25T01:25:24;5.73;;;3.27;;
12535;SDS011;6334;48.696;2.114;2023-05-25T01:28:02;7.13;;;3.93;;
12535;SDS011;6334;48.696;2.114;2023-05-25T01:30:38;8.07;;;4.33;;
12535;SDS011;6334;48.696;2.114;2023-05-25T01:33:07;8.90;;;4.27;;
12535;SDS011;6334;48.696;2.114;2023-05-25T01:35:37;8.53;;;3.93;;
12535;SDS011;6334;48.696;2.114;2023-05-25T01:38:08;9.13;;;4.40;;
12535;SDS011;6334;48.696;2.114;2023-05-25T01:40:38;8.67;;;4.20;;
12535;SDS011;6334;48.696;2.114;2023-05-25T01:43:09;7.80;;;4.63;;
12535;SDS011;6334;48.696;2.114;2023-05-25T01:45:38;6.50;;;4.10;;
12535;SDS011;6334;48.696;2.114;2023-05-25T01:48:24;8.40;;;4.47;;
12535;SDS011;6334;48.696;2.114;2023-05-25T01:53:55;6.07;;;4.00;;
12535;SDS011;6334;48.696;2.114;2023-05-25T01:56:22;9.53;;;4.37;;
12535;SDS011;6334;48.696;2.114;2023-05-25T01:58:53;7.53;;;4.30;;
12535;SDS011;6334;48.696;2.114;2023-05-25T02:01:23;8.87;;;4.50;;
12535;SDS011;6334;48.696;2.114;2023-05-25T02:03:53;8.90;;;4.30;;
12535;SDS011;6334;48.696;2.114;2023-05-25T02:06:23;9.33;;;4.37;;
12535;SDS011;6334;48.696;2.114;2023-05-25T02:08:54;7.67;;;4.23;;
12535;SDS011;6334;48.696;2.114;2023-05-25T02:11:24;10.67;;;4.60;;
12535;SDS011;6334;48.696;2.114;2023-05-25T02:13:55;7.63;;;4.43;;
12535;SDS011;6334;48.696;2.114;2023-05-25T02:16:24;8.87;;;4.30;;
12535;SDS011;6334;48.696;2.114;2023-05-25T02:18:55;7.77;;;4.20;;
12535;SDS011;6334;48.696;2.114;2023-05-25T02:21:25;6.23;;;4.13;;
12535;SDS011;6334;48.696;2.114;2023-05-25T02:23:56;7.63;;;4.10;;
12535;SDS011;6334;48.696;2.114;2023-05-25T02:26:25;9.97;;;4.50;;
12535;SDS011;6334;48.696;2.114;2023-05-25T02:28:56;7.37;;;4.70;;
12535;SDS011;6334;48.696;2.114;2023-05-25T02:31:26;7.23;;;4.37;;
12535;SDS011;6334;48.696;2.114;2023-05-25T02:33:57;7.80;;;4.50;;
12535;SDS011;6334;48.696;2.114;2023-05-25T02:36:27;10.07;;;5.07;;
12535;SDS011;6334;48.696;2.114;2023-05-25T02:38:57;10.30;;;4.90;;
12535;SDS011;6334;48.696;2.114;2023-05-25T02:41:28;7.77;;;4.97;;
12535;SDS011;6334;48.696;2.114;2023-05-25T02:43:58;11.60;;;4.93;;
12535;SDS011;6334;48.696;2.114;2023-05-25T02:46:29;11.43;;;5.10;;
12535;SDS011;6334;48.696;2.114;2023-05-25T02:48:59;8.10;;;4.93;;
12535;SDS011;6334;48.696;2.114;2023-05-25T02:51:30;10.63;;;5.30;;
12535;SDS011;6334;48.696;2.114;2023-05-25T02:54:00;11.00;;;5.07;;
12535;SDS011;6334;48.696;2.114;2023-05-25T02:56:30;9.33;;;4.77;;
12535;SDS011;6334;48.696;2.114;2023-05-25T02:59:00;8.60;;;4.60;;
12535;SDS011;6334;48.696;2.114;2023-05-25T03:01:31;8.60;;;4.33;;
12535;SDS011;6334;48.696;2.114;2023-05-25T03:04:02;10.87;;;4.90;;
12535;SDS011;6334;48.696;2.114;2023-05-25T03:06:32;8.33;;;5.00;;
12535;SDS011;6334;48.696;2.114;2023-05-25T03:09:03;10.53;;;4.90;;
12535;SDS011;6334;48.696;2.114;2023-05-25T03:11:33;7.70;;;4.70;;
12535;SDS011;6334;48.696;2.114;2023-05-25T03:14:04;10.70;;;4.87;;
12535;SDS011;6334;48.696;2.114;2023-05-25T03:16:34;8.83;;;5.00;;
12535;SDS011;6334;48.696;2.114;2023-05-25T03:19:05;7.57;;;4.47;;
12535;SDS011;6334;48.696;2.114;2023-05-25T03:21:36;6.20;;;4.30;;
12535;SDS011;6334;48.696;2.114;2023-05-25T03:24:07;10.70;;;5.30;;
12535;SDS011;6334;48.696;2.114;2023-05-25T03:26:38;8.33;;;4.43;;
12535;SDS011;6334;48.696;2.114;2023-05-25T03:29:08;8.27;;;4.07;;
12535;SDS011;6334;48.696;2.114;2023-05-25T03:31:39;10.90;;;5.30;;
12535;SDS011;6334;48.696;2.114;2023-05-25T03:34:09;8.03;;;4.40;;
12535;SDS011;6334;48.696;2.114;2023-05-25T03:36:41;10.90;;;5.00;;
12535;SDS011;6334;48.696;2.114;2023-05-25T03:39:11;8.47;;;4.70;;
12535;SDS011;6334;48.696;2.114;2023-05-25T03:41:42;9.00;;;5.30;;
12535;SDS011;6334;48.696;2.114;2023-05-25T03:44:13;10.03;;;4.67;;
12535;SDS011;6334;48.696;2.114;2023-05-25T03:46:44;8.17;;;4.63;;
12535;SDS011;6334;48.696;2.114;2023-05-25T03:49:14;8.90;;;5.33;;
12535;SDS011;6334;48.696;2.114;2023-05-25T03:51:45;7.43;;;4.63;;
12535;SDS011;6334;48.696;2.114;2023-05-25T03:54:15;9.07;;;5.00;;
12535;SDS011;6334;48.696;2.114;2023-05-25T03:56:45;7.67;;;4.77;;
12535;SDS011;6334;48.696;2.114;2023-05-25T03:59:15;10.10;;;4.83;;
12535;SDS011;6334;48.696;2.114;2023-05-25T04:01:46;8.53;;;5.30;;
12535;SDS011;6334;48.696;2.114;2023-05-25T04:04:16;8.67;;;4.70;;
12535;SDS011;6334;48.696;2.114;2023-05-25T04:06:47;7.77;;;4.70;;
12535;SDS011;6334;48.696;2.114;2023-05-25T04:09:17;10.03;;;4.90;;
12535;SDS011;6334;48.696;2.114;2023-05-25T04:11:48;10.20;;;5.10;;
12535;SDS011;6334;48.696;2.114;2023-05-25T04:14:18;7.53;;;4.57;;
12535;SDS011;6334;48.696;2.114;2023-05-25T04:16:48;9.47;;;5.03;;
12535;SDS011;6334;48.696;2.114;2023-05-25T04:19:18;9.43;;;5.03;;
12535;SDS011;6334;48.696;2.114;2023-05-25T04:21:49;9.13;;;4.33;;
12535;SDS011;6334;48.696;2.114;2023-05-25T04:24:20;6.00;;;4.13;;
12535;SDS011;6334;48.696;2.114;2023-05-25T04:26:49;6.77;;;4.63;;
12535;SDS011;6334;48.696;2.114;2023-05-25T04:29:20;9.17;;;5.07;;
12535;SDS011;6334;48.696;2.114;2023-05-25T04:31:50;9.43;;;5.23;;
12535;SDS011;6334;48.696;2.114;2023-05-25T04:34:22;12.17;;;5.43;;
12535;SDS011;6334;48.696;2.114;2023-05-25T04:36:52;8.93;;;5.10;;
12535;SDS011;6334;48.696;2.114;2023-05-25T04:39:24;9.93;;;4.83;;
12535;SDS011;6334;48.696;2.114;2023-05-25T04:41:54;9.10;;;4.87;;
12535;SDS011;6334;48.696;2.114;2023-05-25T04:44:25;9.63;;;4.60;;
12535;SDS011;6334;48.696;2.114;2023-05-25T04:46:55;12.80;;;5.23;;
12535;SDS011;6334;48.696;2.114;2023-05-25T04:49:28;10.87;;;4.97;;
12535;SDS011;6334;48.696;2.114;2023-05-25T04:51:58;8.73;;;4.93;;
12535;SDS011;6334;48.696;2.114;2023-05-25T04:54:29;8.63;;;5.00;;
12535;SDS011;6334;48.696;2.114;2023-05-25T04:57:00;10.87;;;5.13;;
12535;SDS011;6334;48.696;2.114;2023-05-25T04:59:29;11.13;;;4.73;;
12535;SDS011;6334;48.696;2.114;2023-05-25T05:01:59;14.20;;;5.60;;
12535;SDS011;6334;48.696;2.114;2023-05-25T05:04:30;7.90;;;4.87;;
12535;SDS011;6334;48.696;2.114;2023-05-25T05:07:00;10.37;;;5.10;;
12535;SDS011;6334;48.696;2.114;2023-05-25T05:09:31;12.10;;;5.20;;
12535;SDS011;6334;48.696;2.114;2023-05-25T05:12:01;10.33;;;4.53;;
12535;SDS011;6334;48.696;2.114;2023-05-25T05:14:32;12.10;;;5.27;;
12535;SDS011;6334;48.696;2.114;2023-05-25T05:17:02;13.13;;;5.00;;
12535;SDS011;6334;48.696;2.114;2023-05-25T05:19:32;9.43;;;4.83;;
12535;SDS011;6334;48.696;2.114;2023-05-25T05:22:03;10.23;;;5.03;;
12535;SDS011;6334;48.696;2.114;2023-05-25T05:24:33;10.70;;;5.17;;
12535;SDS011;6334;48.696;2.114;2023-05-25T05:27:04;10.90;;;5.43;;
12535;SDS011;6334;48.696;2.114;2023-05-25T05:29:34;9.70;;;5.20;;
12535;SDS011;6334;48.696;2.114;2023-05-25T05:34:39;9.07;;;4.73;;
12535;SDS011;6334;48.696;2.114;2023-05-25T05:37:09;6.80;;;4.27;;
12535;SDS011;6334;48.696;2.114;2023-05-25T05:39:40;10.13;;;5.00;;
12535;SDS011;6334;48.696;2.114;2023-05-25T05:42:10;8.43;;;4.87;;
12535;SDS011;6334;48.696;2.114;2023-05-25T05:44:41;10.30;;;5.03;;
12535;SDS011;6334;48.696;2.114;2023-05-25T05:47:11;8.33;;;4.00;;
12535;SDS011;6334;48.696;2.114;2023-05-25T05:49:40;7.60;;;4.40;;
12535;SDS011;6334;48.696;2.114;2023-05-25T05:52:11;9.37;;;4.87;;
12535;SDS011;6334;48.696;2.114;2023-05-25T05:54:41;10.30;;;5.40;;
12535;SDS011;6334;48.696;2.114;2023-05-25T05:57:12;9.54;;;4.36;;
12535;SDS011;6334;48.696;2.114;2023-05-25T05:59:42;6.87;;;5.10;;
12535;SDS011;6334;48.696;2.114;2023-05-25T06:02:12;11.66;;;4.96;;
12535;SDS011;6334;48.696;2.114;2023-05-25T06:04:42;7.57;;;4.77;;
12535;SDS011;6334;48.696;2.114;2023-05-25T06:07:12;9.93;;;5.23;;
12535;SDS011;6334;48.696;2.114;2023-05-25T06:09:42;9.23;;;4.97;;
12535;SDS011;6334;48.696;2.114;2023-05-25T06:14:45;11.47;;;5.13;;
12535;SDS011;6334;48.696;2.114;2023-05-25T06:17:16;9.07;;;5.03;;
12535;SDS011;6334;48.696;2.114;2023-05-25T06:19:47;10.80;;;5.15;;
12535;SDS011;6334;48.696;2.114;2023-05-25T06:22:18;12.63;;;5.50;;
12535;SDS011;6334;48.696;2.114;2023-05-25T06:24:47;11.03;;;5.30;;
12535;SDS011;6334;48.696;2.114;2023-05-25T06:27:17;9.33;;;5.07;;
12535;SDS011;6334;48.696;2.114;2023-05-25T06:29:47;12.40;;;5.03;;
12535;SDS011;6334;48.696;2.114;2023-05-25T06:32:21;9.26;;;4.94;;
12535;SDS011;6334;48.696;2.114;2023-05-25T06:34:52;10.27;;;5.30;;
12535;SDS011;6334;48.696;2.114;2023-05-25T06:37:22;9.77;;;4.90;;
12535;SDS011;6334;48.696;2.114;2023-05-25T06:39:51;9.33;;;4.77;;
12535;SDS011;6334;48.696;2.114;2023-05-25T06:42:25;9.77;;;4.47;;
12535;SDS011;6334;48.696;2.114;2023-05-25T06:44:55;11.33;;;4.90;;
12535;SDS011;6334;48.696;2.114;2023-05-25T06:47:30;9.84;;;5.14;;
12535;SDS011;6334;48.696;2.114;2023-05-25T06:50:02;8.50;;;4.77;;
12535;SDS011;6334;48.696;2.114;2023-05-25T06:52:32;10.95;;;5.25;;
12535;SDS011;6334;48.696;2.114;2023-05-25T06:55:02;10.00;;;4.67;;
12535;SDS011;6334;48.696;2.114;2023-05-25T06:57:31;8.57;;;5.00;;
12535;SDS011;6334;48.696;2.114;2023-05-25T07:00:03;10.23;;;4.50;;
12535;SDS011;6334;48.696;2.114;2023-05-25T07:02:34;10.60;;;5.00;;
12535;SDS011;6334;48.696;2.114;2023-05-25T07:05:05;9.20;;;4.50;;
12535;SDS011;6334;48.696;2.114;2023-05-25T07:07:34;8.70;;;4.45;;
12535;SDS011;6334;48.696;2.114;2023-05-25T07:10:04;8.73;;;4.60;;
12535;SDS011;6334;48.696;2.114;2023-05-25T07:12:35;7.97;;;4.10;;
12535;SDS011;6334;48.696;2.114;2023-05-25T07:15:06;7.93;;;4.07;;
12535;SDS011;6334;48.696;2.114;2023-05-25T07:17:36;8.35;;;4.34;;
12535;SDS011;6334;48.696;2.114;2023-05-25T07:20:07;6.50;;;3.90;;
12535;SDS011;6334;48.696;2.114;2023-05-25T07:22:37;8.38;;;4.53;;
12535;SDS011;6334;48.696;2.114;2023-05-25T07:25:06;8.47;;;4.37;;
12535;SDS011;6334;48.696;2.114;2023-05-25T07:27:36;9.07;;;4.40;;
12535;SDS011;6334;48.696;2.114;2023-05-25T07:30:07;4.80;;;3.83;;
12535;SDS011;6334;48.696;2.114;2023-05-25T07:32:37;11.80;;;4.50;;
12535;SDS011;6334;48.696;2.114;2023-05-25T07:35:07;7.85;;;4.30;;
12535;SDS011;6334;48.696;2.114;2023-05-25T07:37:38;8.90;;;4.13;;
12535;SDS011;6334;48.696;2.114;2023-05-25T07:40:07;10.97;;;4.33;;
12535;SDS011;6334;48.696;2.114;2023-05-25T07:42:37;5.93;;;3.78;;
12535;SDS011;6334;48.696;2.114;2023-05-25T07:45:07;11.91;;;4.31;;
12535;SDS011;6334;48.696;2.114;2023-05-25T07:47:37;7.13;;;3.90;;
12535;SDS011;6334;48.696;2.114;2023-05-25T07:50:08;7.15;;;3.73;;
12535;SDS011;6334;48.696;2.114;2023-05-25T07:55:15;8.02;;;4.03;;
12535;SDS011;6334;48.696;2.114;2023-05-25T07:57:45;7.50;;;4.07;;
12535;SDS011;6334;48.696;2.114;2023-05-25T08:00:14;11.73;;;4.30;;
12535;SDS011;6334;48.696;2.114;2023-05-25T08:05:18;9.57;;;3.90;;
12535;SDS011;6334;48.696;2.114;2023-05-25T08:07:48;8.60;;;4.22;;
12535;SDS011;6334;48.696;2.114;2023-05-25T08:10:19;6.00;;;3.72;;
12535;SDS011;6334;48.696;2.114;2023-05-25T08:12:49;9.73;;;4.43;;
12535;SDS011;6334;48.696;2.114;2023-05-25T08:15:23;9.64;;;4.10;;
12535;SDS011;6334;48.696;2.114;2023-05-25T08:17:53;8.98;;;4.12;;
12535;SDS011;6334;48.696;2.114;2023-05-25T08:20:23;12.02;;;4.03;;
12535;SDS011;6334;48.696;2.114;2023-05-25T08:22:53;8.86;;;3.86;;
12535;SDS011;6334;48.696;2.114;2023-05-25T08:25:23;9.02;;;4.30;;
12535;SDS011;6334;48.696;2.114;2023-05-25T08:27:53;7.70;;;3.57;;
12535;SDS011;6334;48.696;2.114;2023-05-25T08:30:22;6.20;;;3.78;;
12535;SDS011;6334;48.696;2.114;2023-05-25T08:32:52;7.03;;;4.07;;
12535;SDS011;6334;48.696;2.114;2023-05-25T08:35:22;7.40;;;3.50;;
12535;SDS011;6334;48.696;2.114;2023-05-25T08:37:52;5.17;;;3.63;;
12535;SDS011;6334;48.696;2.114;2023-05-25T08:40:22;6.87;;;3.80;;
12535;SDS011;6334;48.696;2.114;2023-05-25T08:42:52;5.82;;;3.55;;
12535;SDS011;6334;48.696;2.114;2023-05-25T08:45:21;7.28;;;3.50;;
12535;SDS011;6334;48.696;2.114;2023-05-25T08:47:52;8.95;;;3.80;;
12535;SDS011;6334;48.696;2.114;2023-05-25T08:50:21;8.80;;;3.70;;
12535;SDS011;6334;48.696;2.114;2023-05-25T08:55:25;6.05;;;3.28;;
12535;SDS011;6334;48.696;2.114;2023-05-25T08:58:01;6.37;;;3.67;;
12535;SDS011;6334;48.696;2.114;2023-05-25T09:00:44;7.27;;;3.50;;
12535;SDS011;6334;48.696;2.114;2023-05-25T09:03:14;5.87;;;3.33;;
12535;SDS011;6334;48.696;2.114;2023-05-25T09:05:42;9.80;;;3.70;;
12535;SDS011;6334;48.696;2.114;2023-05-25T09:08:16;7.13;;;3.87;;
12535;SDS011;6334;48.696;2.114;2023-05-25T09:10:46;6.77;;;3.35;;
12535;SDS011;6334;48.696;2.114;2023-05-25T09:15:54;7.13;;;3.39;;
12535;SDS011;6334;48.696;2.114;2023-05-25T09:18:27;9.13;;;3.90;;
12535;SDS011;6334;48.696;2.114;2023-05-25T09:20:57;7.87;;;4.00;;
12535;SDS011;6334;48.696;2.114;2023-05-25T09:23:27;5.15;;;3.58;;
12535;SDS011;6334;48.696;2.114;2023-05-25T09:25:56;5.13;;;3.60;;
12535;SDS011;6334;48.696;2.114;2023-05-25T09:28:27;7.13;;;3.53;;
12535;SDS011;6334;48.696;2.114;2023-05-25T09:30:56;7.90;;;3.28;;
12535;SDS011;6334;48.696;2.114;2023-05-25T09:33:26;6.87;;;3.63;;
12535;SDS011;6334;48.696;2.114;2023-05-25T09:35:56;6.73;;;3.50;;
12535;SDS011;6334;48.696;2.114;2023-05-25T09:38:26;6.63;;;3.20;;
12535;SDS011;6334;48.696;2.114;2023-05-25T09:40:57;7.53;;;3.83;;
12535;SDS011;6334;48.696;2.114;2023-05-25T09:43:27;6.53;;;3.40;;
12535;SDS011;6334;48.696;2.114;2023-05-25T09:45:57;6.23;;;3.47;;
12535;SDS011;6334;48.696;2.114;2023-05-25T09:48:26;6.30;;;3.40;;
12535;SDS011;6334;48.696;2.114;2023-05-25T09:50:56;5.53;;;3.67;;
12535;SDS011;6334;48.696;2.114;2023-05-25T09:53:27;7.97;;;3.95;;
12535;SDS011;6334;48.696;2.114;2023-05-25T09:55:59;5.77;;;3.70;;
12535;SDS011;6334;48.696;2.114;2023-05-25T09:58:27;8.70;;;3.60;;
12535;SDS011;6334;48.696;2.114;2023-05-25T10:00:57;6.13;;;3.60;;
12535;SDS011;6334;48.696;2.114;2023-05-25T10:03:28;8.20;;;3.60;;
12535;SDS011;6334;48.696;2.114;2023-05-25T10:05:59;6.37;;;3.30;;
12535;SDS011;6334;48.696;2.114;2023-05-25T10:08:29;6.97;;;3.90;;
12535;SDS011;6334;48.696;2.114;2023-05-25T10:10:58;6.40;;;3.07;;
12535;SDS011;6334;48.696;2.114;2023-05-25T10:16:03;4.53;;;3.30;;
12535;SDS011;6334;48.696;2.114;2023-05-25T10:21:05;7.83;;;3.60;;
12535;SDS011;6334;48.696;2.114;2023-05-25T10:23:38;8.38;;;3.87;;
12535;SDS011;6334;48.696;2.114;2023-05-25T10:26:07;4.87;;;3.00;;
12535;SDS011;6334;48.696;2.114;2023-05-25T10:28:38;5.13;;;3.43;;
12535;SDS011;6334;48.696;2.114;2023-05-25T10:31:07;4.00;;;3.25;;
12535;SDS011;6334;48.696;2.114;2023-05-25T10:36:11;5.63;;;3.27;;
12535;SDS011;6334;48.696;2.114;2023-05-25T10:38:41;7.40;;;3.30;;
12535;SDS011;6334;48.696;2.114;2023-05-25T10:41:11;10.53;;;3.77;;
12535;SDS011;6334;48.696;2.114;2023-05-25T10:43:41;4.00;;;3.40;;
12535;SDS011;6334;48.696;2.114;2023-05-25T10:46:13;5.65;;;3.70;;
12535;SDS011;6334;48.696;2.114;2023-05-25T10:48:44;6.83;;;3.37;;
12535;SDS011;6334;48.696;2.114;2023-05-25T10:51:19;8.73;;;3.90;;
12535;SDS011;6334;48.696;2.114;2023-05-25T10:54:00;8.04;;;3.28;;
12535;SDS011;6334;48.696;2.114;2023-05-25T10:56:26;8.73;;;3.10;;
12535;SDS011;6334;48.696;2.114;2023-05-25T10:58:55;5.70;;;3.75;;
12535;SDS011;6334;48.696;2.114;2023-05-25T11:01:25;5.62;;;3.20;;
12535;SDS011;6334;48.696;2.114;2023-05-25T11:03:56;5.40;;;3.30;;
12535;SDS011;6334;48.696;2.114;2023-05-25T11:09:30;4.57;;;3.27;;
12535;SDS011;6334;48.696;2.114;2023-05-25T11:14:27;5.63;;;3.00;;
12535;SDS011;6334;48.696;2.114;2023-05-25T11:17:13;6.70;;;3.30;;
12535;SDS011;6334;48.696;2.114;2023-05-25T11:19:43;6.75;;;3.20;;
12535;SDS011;6334;48.696;2.114;2023-05-25T11:22:16;7.70;;;3.67;;
12535;SDS011;6334;48.696;2.114;2023-05-25T11:24:47;5.77;;;3.50;;
12535;SDS011;6334;48.696;2.114;2023-05-25T11:27:26;5.55;;;3.50;;
12535;SDS011;6334;48.696;2.114;2023-05-25T11:29:53;7.85;;;3.47;;
12535;SDS011;6334;48.696;2.114;2023-05-25T11:32:23;7.13;;;3.60;;
12535;SDS011;6334;48.696;2.114;2023-05-25T11:34:52;6.65;;;3.60;;
12535;SDS011;6334;48.696;2.114;2023-05-25T11:37:22;6.07;;;3.60;;
12535;SDS011;6334;48.696;2.114;2023-05-25T11:39:58;6.58;;;3.40;;
12535;SDS011;6334;48.696;2.114;2023-05-25T11:45:04;4.58;;;3.32;;
12535;SDS011;6334;48.696;2.114;2023-05-25T11:47:34;7.40;;;3.52;;
12535;SDS011;6334;48.696;2.114;2023-05-25T11:50:05;6.63;;;3.57;;
12535;SDS011;6334;48.696;2.114;2023-05-25T11:52:36;5.30;;;3.60;;
12535;SDS011;6334;48.696;2.114;2023-05-25T11:55:11;5.04;;;2.81;;
12535;SDS011;6334;48.696;2.114;2023-05-25T11:57:41;4.57;;;3.37;;
12535;SDS011;6334;48.696;2.114;2023-05-25T12:00:11;5.10;;;3.20;;
12535;SDS011;6334;48.696;2.114;2023-05-25T12:02:41;4.28;;;3.47;;
12535;SDS011;6334;48.696;2.114;2023-05-25T12:05:11;5.27;;;3.20;;
12535;SDS011;6334;48.696;2.114;2023-05-25T12:07:41;5.87;;;3.40;;
12535;SDS011;6334;48.696;2.114;2023-05-25T12:10:11;6.73;;;3.60;;
12535;SDS011;6334;48.696;2.114;2023-05-25T12:12:44;5.83;;;3.23;;
12535;SDS011;6334;48.696;2.114;2023-05-25T12:15:21;6.12;;;3.20;;
12535;SDS011;6334;48.696;2.114;2023-05-25T12:17:52;3.20;;;2.90;;
12535;SDS011;6334;48.696;2.114;2023-05-25T12:20:22;6.63;;;3.60;;
12535;SDS011;6334;48.696;2.114;2023-05-25T12:22:52;5.22;;;3.45;;
12535;SDS011;6334;48.696;2.114;2023-05-25T12:25:22;4.50;;;3.20;;
12535;SDS011;6334;48.696;2.114;2023-05-25T12:28:11;4.14;;;3.44;;
12535;SDS011;6334;48.696;2.114;2023-05-25T12:30:41;5.57;;;3.42;;
12535;SDS011;6334;48.696;2.114;2023-05-25T12:35:49;4.77;;;3.13;;
12535;SDS011;6334;48.696;2.114;2023-05-25T12:38:21;4.67;;;3.20;;
12535;SDS011;6334;48.696;2.114;2023-05-25T12:41:06;6.83;;;3.20;;
12535;SDS011;6334;48.696;2.114;2023-05-25T12:43:37;5.23;;;3.67;;
12535;SDS011;6334;48.696;2.114;2023-05-25T12:46:07;5.95;;;3.30;;
12535;SDS011;6334;48.696;2.114;2023-05-25T12:48:37;5.00;;;3.13;;
12535;SDS011;6334;48.696;2.114;2023-05-25T12:51:07;6.30;;;3.30;;
12535;SDS011;6334;48.696;2.114;2023-05-25T12:53:49;7.03;;;3.23;;
12535;SDS011;6334;48.696;2.114;2023-05-25T12:56:18;9.40;;;3.50;;
12535;SDS011;6334;48.696;2.114;2023-05-25T12:58:48;5.33;;;3.10;;
12535;SDS011;6334;48.696;2.114;2023-05-25T13:01:19;5.97;;;2.97;;
12535;SDS011;6334;48.696;2.114;2023-05-25T13:03:49;4.63;;;3.37;;
12535;SDS011;6334;48.696;2.114;2023-05-25T13:06:19;6.03;;;3.60;;
12535;SDS011;6334;48.696;2.114;2023-05-25T13:08:50;5.00;;;3.29;;
12535;SDS011;6334;48.696;2.114;2023-05-25T13:11:19;6.78;;;3.33;;
12535;SDS011;6334;48.696;2.114;2023-05-25T13:13:50;6.93;;;3.00;;
12535;SDS011;6334;48.696;2.114;2023-05-25T13:16:21;7.63;;;3.70;;
12535;SDS011;6334;48.696;2.114;2023-05-25T13:18:50;4.37;;;3.07;;
12535;SDS011;6334;48.696;2.114;2023-05-25T13:21:20;8.47;;;3.43;;
12535;SDS011;6334;48.696;2.114;2023-05-25T13:23:51;7.10;;;3.60;;
12535;SDS011;6334;48.696;2.114;2023-05-25T13:26:22;9.07;;;3.13;;
12535;SDS011;6334;48.696;2.114;2023-05-25T13:28:52;4.30;;;3.17;;
12535;SDS011;6334;48.696;2.114;2023-05-25T13:31:21;4.85;;;2.95;;
12535;SDS011;6334;48.696;2.114;2023-05-25T13:33:51;4.60;;;3.55;;
12535;SDS011;6334;48.696;2.114;2023-05-25T13:36:21;6.40;;;3.60;;
12535;SDS011;6334;48.696;2.114;2023-05-25T13:38:52;3.07;;;2.73;;
12535;SDS011;6334;48.696;2.114;2023-05-25T13:41:21;4.10;;;3.10;;
12535;SDS011;6334;48.696;2.114;2023-05-25T13:43:51;5.20;;;3.30;;
12535;SDS011;6334;48.696;2.114;2023-05-25T13:46:22;7.40;;;3.50;;
12535;SDS011;6334;48.696;2.114;2023-05-25T13:48:53;4.82;;;2.70;;
12535;SDS011;6334;48.696;2.114;2023-05-25T13:51:22;4.80;;;3.03;;
12535;SDS011;6334;48.696;2.114;2023-05-25T13:53:53;5.82;;;3.33;;
12535;SDS011;6334;48.696;2.114;2023-05-25T13:56:23;4.25;;;3.10;;
12535;SDS011;6334;48.696;2.114;2023-05-25T13:58:54;5.63;;;3.07;;
12535;SDS011;6334;48.696;2.114;2023-05-25T14:01:25;4.27;;;3.00;;
12535;SDS011;6334;48.696;2.114;2023-05-25T14:03:54;5.87;;;3.43;;
12535;SDS011;6334;48.696;2.114;2023-05-25T14:06:25;3.87;;;3.47;;
12535;SDS011;6334;48.696;2.114;2023-05-25T14:08:54;6.27;;;3.47;;
12535;SDS011;6334;48.696;2.114;2023-05-25T14:11:24;5.15;;;3.40;;
12535;SDS011;6334;48.696;2.114;2023-05-25T14:13:55;4.33;;;2.83;;
12535;SDS011;6334;48.696;2.114;2023-05-25T14:16:25;6.80;;;3.50;;
12535;SDS011;6334;48.696;2.114;2023-05-25T14:18:56;5.15;;;3.45;;
12535;SDS011;6334;48.696;2.114;2023-05-25T14:21:27;6.07;;;3.40;;
12535;SDS011;6334;48.696;2.114;2023-05-25T14:23:56;6.90;;;3.40;;
12535;SDS011;6334;48.696;2.114;2023-05-25T14:26:26;6.82;;;3.33;;
12535;SDS011;6334;48.696;2.114;2023-05-25T14:28:56;6.93;;;4.30;;
12535;SDS011;6334;48.696;2.114;2023-05-25T14:31:26;6.40;;;3.50;;
12535;SDS011;6334;48.696;2.114;2023-05-25T14:33:57;7.57;;;3.80;;
12535;SDS011;6334;48.696;2.114;2023-05-25T14:36:29;7.33;;;3.70;;
12535;SDS011;6334;48.696;2.114;2023-05-25T14:38:58;6.07;;;3.57;;
12535;SDS011;6334;48.696;2.114;2023-05-25T14:41:28;4.77;;;3.37;;
12535;SDS011;6334;48.696;2.114;2023-05-25T14:43:58;11.13;;;4.23;;
12535;SDS011;6334;48.696;2.114;2023-05-25T14:46:28;6.50;;;3.48;;
12535;SDS011;6334;48.696;2.114;2023-05-25T14:48:59;5.72;;;3.75;;
12535;SDS011;6334;48.696;2.114;2023-05-25T14:51:29;11.70;;;4.27;;
12535;SDS011;6334;48.696;2.114;2023-05-25T14:53:59;6.77;;;4.13;;
12535;SDS011;6334;48.696;2.114;2023-05-25T14:56:30;6.20;;;3.55;;
12535;SDS011;6334;48.696;2.114;2023-05-25T14:59:00;7.48;;;4.12;;
12535;SDS011;6334;48.696;2.114;2023-05-25T15:01:30;7.30;;;4.10;;
12535;SDS011;6334;48.696;2.114;2023-05-25T15:06:35;6.20;;;3.83;;
12535;SDS011;6334;48.696;2.114;2023-05-25T15:09:08;6.23;;;3.65;;
12535;SDS011;6334;48.696;2.114;2023-05-25T15:11:38;9.15;;;4.10;;
12535;SDS011;6334;48.696;2.114;2023-05-25T15:14:08;5.70;;;3.90;;
12535;SDS011;6334;48.696;2.114;2023-05-25T15:16:39;5.28;;;3.42;;
12535;SDS011;6334;48.696;2.114;2023-05-25T15:19:08;7.47;;;4.00;;
12535;SDS011;6334;48.696;2.114;2023-05-25T15:21:39;6.00;;;3.90;;
12535;SDS011;6334;48.696;2.114;2023-05-25T15:24:09;7.83;;;3.87;;
12535;SDS011;6334;48.696;2.114;2023-05-25T15:26:40;6.20;;;3.90;;
12535;SDS011;6334;48.696;2.114;2023-05-25T15:29:10;6.63;;;4.03;;
12535;SDS011;6334;48.696;2.114;2023-05-25T15:31:41;9.63;;;4.20;;
12535;SDS011;6334;48.696;2.114;2023-05-25T15:34:11;6.77;;;4.30;;
12535;SDS011;6334;48.696;2.114;2023-05-25T15:36:42;6.70;;;4.07;;
12535;SDS011;6334;48.696;2.114;2023-05-25T15:39:13;8.07;;;3.73;;
12535;SDS011;6334;48.696;2.114;2023-05-25T15:41:44;7.73;;;4.13;;
12535;SDS011;6334;48.696;2.114;2023-05-25T15:44:14;5.97;;;3.97;;
12535;SDS011;6334;48.696;2.114;2023-05-25T15:46:45;6.13;;;3.63;;
12535;SDS011;6334;48.696;2.114;2023-05-25T15:49:15;9.57;;;4.20;;
12535;SDS011;6334;48.696;2.114;2023-05-25T15:51:46;5.60;;;4.07;;
12535;SDS011;6334;48.696;2.114;2023-05-25T15:54:16;5.93;;;4.17;;
12535;SDS011;6334;48.696;2.114;2023-05-25T15:56:47;7.00;;;4.20;;
12535;SDS011;6334;48.696;2.114;2023-05-25T15:59:17;6.10;;;3.97;;